sensor_id;sensor_type;location;lat;lon;timestamp;P1;durP1;ratioP1;P2;durP2;ratioP2
57401;SDS011;43226;51.110;6.998;2022-12-07T00:01:04;29.87;;;18.63;;
57401;SDS011;43226;51.110;6.998;2022-12-07T00:03:30;27.03;;;18.10;;
57401;SDS011;43226;51.110;6.998;2022-12-07T00:05:58;36.60;;;19.53;;
57401;SDS011;43226;51.110;6.998;2022-12-07T00:08:23;32.37;;;19.20;;
57401;SDS011;43226;51.110;6.998;2022-12-07T00:10:48;33.23;;;20.37;;
57401;SDS011;43226;51.110;6.998;2022-12-07T00:13:14;35.33;;;19.57;;
57401;SDS011;43226;51.110;6.998;2022-12-07T00:15:39;34.80;;;18.93;;
57401;SDS011;43226;51.110;6.998;2022-12-07T00:18:04;34.73;;;19.47;;
57401;SDS011;43226;51.110;6.998;2022-12-07T00:20:29;33.70;;;19.03;;
57401;SDS011;43226;51.110;6.998;2022-12-07T00:22:55;32.20;;;19.90;;
57401;SDS011;43226;51.110;6.998;2022-12-07T00:25:21;36.10;;;20.00;;
57401;SDS011;43226;51.110;6.998;2022-12-07T00:27:46;35.27;;;20.30;;
57401;SDS011;43226;51.110;6.998;2022-12-07T00:30:11;36.03;;;19.83;;
57401;SDS011;43226;51.110;6.998;2022-12-07T00:32:36;40.17;;;20.07;;
57401;SDS011;43226;51.110;6.998;2022-12-07T00:35:01;32.80;;;21.50;;
57401;SDS011;43226;51.110;6.998;2022-12-07T00:37:27;34.70;;;18.90;;
57401;SDS011;43226;51.110;6.998;2022-12-07T00:39:52;34.20;;;21.03;;
57401;SDS011;43226;51.110;6.998;2022-12-07T00:42:17;43.23;;;20.10;;
57401;SDS011;43226;51.110;6.998;2022-12-07T00:44:42;37.77;;;20.70;;
57401;SDS011;43226;51.110;6.998;2022-12-07T00:47:07;34.77;;;20.13;;
57401;SDS011;43226;51.110;6.998;2022-12-07T00:49:32;31.50;;;20.93;;
57401;SDS011;43226;51.110;6.998;2022-12-07T00:51:58;32.20;;;20.37;;
57401;SDS011;43226;51.110;6.998;2022-12-07T00:54:23;31.77;;;21.07;;
57401;SDS011;43226;51.110;6.998;2022-12-07T00:56:48;33.57;;;20.07;;
57401;SDS011;43226;51.110;6.998;2022-12-07T00:59:13;33.30;;;20.93;;
57401;SDS011;43226;51.110;6.998;2022-12-07T01:01:42;29.47;;;18.80;;
57401;SDS011;43226;51.110;6.998;2022-12-07T01:04:07;29.87;;;19.33;;
57401;SDS011;43226;51.110;6.998;2022-12-07T01:06:32;36.33;;;21.03;;
57401;SDS011;43226;51.110;6.998;2022-12-07T01:08:58;36.07;;;19.73;;
57401;SDS011;43226;51.110;6.998;2022-12-07T01:11:27;37.23;;;19.10;;
57401;SDS011;43226;51.110;6.998;2022-12-07T01:13:54;31.93;;;20.27;;
57401;SDS011;43226;51.110;6.998;2022-12-07T01:16:20;39.20;;;20.57;;
57401;SDS011;43226;51.110;6.998;2022-12-07T01:18:47;32.57;;;20.30;;
57401;SDS011;43226;51.110;6.998;2022-12-07T01:21:14;38.40;;;18.90;;
57401;SDS011;43226;51.110;6.998;2022-12-07T01:23:39;35.97;;;20.10;;
57401;SDS011;43226;51.110;6.998;2022-12-07T01:26:09;27.70;;;20.00;;
57401;SDS011;43226;51.110;6.998;2022-12-07T01:28:34;29.73;;;19.40;;
57401;SDS011;43226;51.110;6.998;2022-12-07T01:31:01;32.00;;;20.27;;
57401;SDS011;43226;51.110;6.998;2022-12-07T01:33:30;37.27;;;21.27;;
57401;SDS011;43226;51.110;6.998;2022-12-07T01:36:05;31.80;;;20.87;;
57401;SDS011;43226;51.110;6.998;2022-12-07T01:38:31;37.50;;;18.43;;
57401;SDS011;43226;51.110;6.998;2022-12-07T01:40:56;35.60;;;20.00;;
57401;SDS011;43226;51.110;6.998;2022-12-07T01:43:22;36.40;;;20.10;;
57401;SDS011;43226;51.110;6.998;2022-12-07T01:45:48;33.80;;;21.27;;
57401;SDS011;43226;51.110;6.998;2022-12-07T01:48:14;35.40;;;21.67;;
57401;SDS011;43226;51.110;6.998;2022-12-07T01:50:42;37.77;;;20.63;;
57401;SDS011;43226;51.110;6.998;2022-12-07T01:53:08;34.80;;;22.87;;
57401;SDS011;43226;51.110;6.998;2022-12-07T01:55:34;32.40;;;21.13;;
57401;SDS011;43226;51.110;6.998;2022-12-07T01:58:02;35.33;;;22.23;;
57401;SDS011;43226;51.110;6.998;2022-12-07T02:00:27;39.60;;;22.60;;
57401;SDS011;43226;51.110;6.998;2022-12-07T02:02:56;37.27;;;22.10;;
57401;SDS011;43226;51.110;6.998;2022-12-07T02:05:23;37.63;;;23.50;;
57401;SDS011;43226;51.110;6.998;2022-12-07T02:07:49;38.13;;;22.00;;
57401;SDS011;43226;51.110;6.998;2022-12-07T02:10:17;36.00;;;23.17;;
57401;SDS011;43226;51.110;6.998;2022-12-07T02:12:43;39.07;;;22.63;;
57401;SDS011;43226;51.110;6.998;2022-12-07T02:15:10;36.70;;;22.97;;
57401;SDS011;43226;51.110;6.998;2022-12-07T02:17:58;38.47;;;22.80;;
57401;SDS011;43226;51.110;6.998;2022-12-07T02:20:30;40.57;;;22.97;;
57401;SDS011;43226;51.110;6.998;2022-12-07T02:23:10;38.13;;;23.90;;
57401;SDS011;43226;51.110;6.998;2022-12-07T02:28:26;38.20;;;24.17;;
57401;SDS011;43226;51.110;6.998;2022-12-07T02:30:52;40.13;;;23.60;;
57401;SDS011;43226;51.110;6.998;2022-12-07T02:33:22;44.30;;;22.97;;
57401;SDS011;43226;51.110;6.998;2022-12-07T02:35:51;47.53;;;23.13;;
57401;SDS011;43226;51.110;6.998;2022-12-07T02:40:55;39.35;;;23.17;;
57401;SDS011;43226;51.110;6.998;2022-12-07T02:45:47;38.95;;;23.58;;
57401;SDS011;43226;51.110;6.998;2022-12-07T02:48:16;39.37;;;23.40;;
57401;SDS011;43226;51.110;6.998;2022-12-07T02:50:48;37.97;;;21.63;;
57401;SDS011;43226;51.110;6.998;2022-12-07T02:53:46;46.70;;;24.20;;
57401;SDS011;43226;51.110;6.998;2022-12-07T02:56:27;39.30;;;22.90;;
57401;SDS011;43226;51.110;6.998;2022-12-07T03:03:58;41.35;;;23.10;;
57401;SDS011;43226;51.110;6.998;2022-12-07T03:06:31;40.00;;;24.77;;
57401;SDS011;43226;51.110;6.998;2022-12-07T03:11:48;41.30;;;23.87;;
57401;SDS011;43226;51.110;6.998;2022-12-07T03:14:17;40.30;;;23.50;;
57401;SDS011;43226;51.110;6.998;2022-12-07T03:17:05;44.67;;;24.23;;
57401;SDS011;43226;51.110;6.998;2022-12-07T03:19:29;42.03;;;23.80;;
57401;SDS011;43226;51.110;6.998;2022-12-07T03:22:05;42.93;;;24.57;;
57401;SDS011;43226;51.110;6.998;2022-12-07T03:27:10;48.43;;;24.33;;
57401;SDS011;43226;51.110;6.998;2022-12-07T03:29:37;35.30;;;22.90;;
57401;SDS011;43226;51.110;6.998;2022-12-07T03:32:06;38.80;;;24.07;;
57401;SDS011;43226;51.110;6.998;2022-12-07T03:34:38;41.70;;;24.23;;
57401;SDS011;43226;51.110;6.998;2022-12-07T03:42:40;40.43;;;24.60;;
57401;SDS011;43226;51.110;6.998;2022-12-07T03:45:05;37.77;;;23.97;;
57401;SDS011;43226;51.110;6.998;2022-12-07T03:50:31;35.43;;;24.20;;
57401;SDS011;43226;51.110;6.998;2022-12-07T03:53:12;37.83;;;22.97;;
57401;SDS011;43226;51.110;6.998;2022-12-07T03:55:41;37.47;;;23.90;;
57401;SDS011;43226;51.110;6.998;2022-12-07T03:58:09;35.67;;;23.30;;
57401;SDS011;43226;51.110;6.998;2022-12-07T04:00:35;37.70;;;24.30;;
57401;SDS011;43226;51.110;6.998;2022-12-07T04:03:00;36.23;;;22.63;;
57401;SDS011;43226;51.110;6.998;2022-12-07T04:05:25;36.63;;;23.50;;
57401;SDS011;43226;51.110;6.998;2022-12-07T04:07:51;38.63;;;22.80;;
57401;SDS011;43226;51.110;6.998;2022-12-07T04:10:16;38.03;;;22.90;;
57401;SDS011;43226;51.110;6.998;2022-12-07T04:12:41;38.13;;;23.17;;
57401;SDS011;43226;51.110;6.998;2022-12-07T04:15:07;41.80;;;23.03;;
57401;SDS011;43226;51.110;6.998;2022-12-07T04:17:32;32.30;;;21.00;;
57401;SDS011;43226;51.110;6.998;2022-12-07T04:19:57;35.20;;;21.83;;
57401;SDS011;43226;51.110;6.998;2022-12-07T04:22:22;35.37;;;22.00;;
57401;SDS011;43226;51.110;6.998;2022-12-07T04:24:48;35.10;;;22.80;;
57401;SDS011;43226;51.110;6.998;2022-12-07T04:27:13;37.30;;;21.77;;
57401;SDS011;43226;51.110;6.998;2022-12-07T04:29:38;31.10;;;20.03;;
57401;SDS011;43226;51.110;6.998;2022-12-07T04:32:03;36.50;;;19.43;;
57401;SDS011;43226;51.110;6.998;2022-12-07T04:34:28;38.17;;;20.40;;
57401;SDS011;43226;51.110;6.998;2022-12-07T04:36:54;32.07;;;19.20;;
57401;SDS011;43226;51.110;6.998;2022-12-07T04:39:20;26.20;;;18.87;;
57401;SDS011;43226;51.110;6.998;2022-12-07T04:41:46;31.60;;;19.83;;
57401;SDS011;43226;51.110;6.998;2022-12-07T04:44:11;43.70;;;21.20;;
57401;SDS011;43226;51.110;6.998;2022-12-07T04:46:39;29.67;;;19.70;;
57401;SDS011;43226;51.110;6.998;2022-12-07T04:49:04;43.10;;;21.67;;
57401;SDS011;43226;51.110;6.998;2022-12-07T04:51:29;29.50;;;19.27;;
57401;SDS011;43226;51.110;6.998;2022-12-07T04:53:55;31.53;;;20.03;;
57401;SDS011;43226;51.110;6.998;2022-12-07T04:56:20;38.07;;;19.57;;
57401;SDS011;43226;51.110;6.998;2022-12-07T04:58:46;27.73;;;18.90;;
57401;SDS011;43226;51.110;6.998;2022-12-07T05:01:12;30.50;;;19.53;;
57401;SDS011;43226;51.110;6.998;2022-12-07T05:03:37;34.23;;;19.37;;
57401;SDS011;43226;51.110;6.998;2022-12-07T05:06:03;29.83;;;19.83;;
57401;SDS011;43226;51.110;6.998;2022-12-07T05:08:28;29.97;;;17.87;;
57401;SDS011;43226;51.110;6.998;2022-12-07T05:10:53;30.90;;;18.77;;
57401;SDS011;43226;51.110;6.998;2022-12-07T05:13:18;30.57;;;18.20;;
57401;SDS011;43226;51.110;6.998;2022-12-07T05:15:43;32.60;;;18.37;;
57401;SDS011;43226;51.110;6.998;2022-12-07T05:18:09;29.63;;;20.10;;
57401;SDS011;43226;51.110;6.998;2022-12-07T05:20:34;27.07;;;18.10;;
57401;SDS011;43226;51.110;6.998;2022-12-07T05:22:59;30.60;;;17.50;;
57401;SDS011;43226;51.110;6.998;2022-12-07T05:25:25;25.73;;;17.90;;
57401;SDS011;43226;51.110;6.998;2022-12-07T05:27:50;30.70;;;18.83;;
57401;SDS011;43226;51.110;6.998;2022-12-07T05:30:15;34.80;;;18.67;;
57401;SDS011;43226;51.110;6.998;2022-12-07T05:32:40;23.03;;;17.63;;
57401;SDS011;43226;51.110;6.998;2022-12-07T05:35:06;23.63;;;16.63;;
57401;SDS011;43226;51.110;6.998;2022-12-07T05:37:31;24.87;;;16.63;;
57401;SDS011;43226;51.110;6.998;2022-12-07T05:39:56;26.60;;;17.80;;
57401;SDS011;43226;51.110;6.998;2022-12-07T05:42:21;25.17;;;16.20;;
57401;SDS011;43226;51.110;6.998;2022-12-07T05:44:47;24.17;;;16.93;;
57401;SDS011;43226;51.110;6.998;2022-12-07T05:47:12;31.27;;;17.50;;
57401;SDS011;43226;51.110;6.998;2022-12-07T05:49:38;21.40;;;15.17;;
57401;SDS011;43226;51.110;6.998;2022-12-07T05:52:03;22.77;;;15.10;;
57401;SDS011;43226;51.110;6.998;2022-12-07T05:54:28;21.00;;;15.70;;
57401;SDS011;43226;51.110;6.998;2022-12-07T05:56:54;21.60;;;16.37;;
57401;SDS011;43226;51.110;6.998;2022-12-07T05:59:19;23.80;;;15.90;;
57401;SDS011;43226;51.110;6.998;2022-12-07T06:01:47;24.43;;;16.27;;
57401;SDS011;43226;51.110;6.998;2022-12-07T06:04:12;20.43;;;13.77;;
57401;SDS011;43226;51.110;6.998;2022-12-07T06:06:37;22.40;;;15.70;;
57401;SDS011;43226;51.110;6.998;2022-12-07T06:09:03;20.00;;;15.50;;
57401;SDS011;43226;51.110;6.998;2022-12-07T06:11:28;22.90;;;13.90;;
57401;SDS011;43226;51.110;6.998;2022-12-07T06:14:12;20.40;;;15.00;;
57401;SDS011;43226;51.110;6.998;2022-12-07T06:16:37;28.60;;;16.57;;
57401;SDS011;43226;51.110;6.998;2022-12-07T06:19:02;27.83;;;15.70;;
57401;SDS011;43226;51.110;6.998;2022-12-07T06:21:27;25.77;;;15.17;;
57401;SDS011;43226;51.110;6.998;2022-12-07T06:23:52;25.43;;;15.67;;
57401;SDS011;43226;51.110;6.998;2022-12-07T06:26:17;22.30;;;14.80;;
57401;SDS011;43226;51.110;6.998;2022-12-07T06:28:42;25.83;;;13.90;;
57401;SDS011;43226;51.110;6.998;2022-12-07T06:31:08;26.27;;;15.30;;
57401;SDS011;43226;51.110;6.998;2022-12-07T06:33:33;25.53;;;14.80;;
57401;SDS011;43226;51.110;6.998;2022-12-07T06:35:58;18.37;;;13.73;;
57401;SDS011;43226;51.110;6.998;2022-12-07T06:38:23;23.87;;;14.50;;
57401;SDS011;43226;51.110;6.998;2022-12-07T06:40:49;20.87;;;14.13;;
57401;SDS011;43226;51.110;6.998;2022-12-07T06:43:14;24.57;;;13.80;;
57401;SDS011;43226;51.110;6.998;2022-12-07T06:45:40;24.60;;;13.70;;
57401;SDS011;43226;51.110;6.998;2022-12-07T06:48:05;27.03;;;16.73;;
57401;SDS011;43226;51.110;6.998;2022-12-07T06:50:30;22.70;;;14.00;;
57401;SDS011;43226;51.110;6.998;2022-12-07T06:52:55;17.60;;;12.40;;
57401;SDS011;43226;51.110;6.998;2022-12-07T06:55:21;19.70;;;12.97;;
57401;SDS011;43226;51.110;6.998;2022-12-07T06:57:46;25.33;;;12.73;;
57401;SDS011;43226;51.110;6.998;2022-12-07T07:00:11;21.93;;;14.00;;
57401;SDS011;43226;51.110;6.998;2022-12-07T07:02:36;25.63;;;14.10;;
57401;SDS011;43226;51.110;6.998;2022-12-07T07:05:02;18.80;;;13.57;;
57401;SDS011;43226;51.110;6.998;2022-12-07T07:07:27;21.17;;;13.97;;
57401;SDS011;43226;51.110;6.998;2022-12-07T07:09:53;21.43;;;14.13;;
57401;SDS011;43226;51.110;6.998;2022-12-07T07:12:18;25.67;;;14.50;;
57401;SDS011;43226;51.110;6.998;2022-12-07T07:14:43;24.87;;;13.80;;
57401;SDS011;43226;51.110;6.998;2022-12-07T07:17:08;24.83;;;13.50;;
57401;SDS011;43226;51.110;6.998;2022-12-07T07:19:34;20.47;;;12.83;;
57401;SDS011;43226;51.110;6.998;2022-12-07T07:21:59;24.47;;;15.70;;
57401;SDS011;43226;51.110;6.998;2022-12-07T07:24:24;20.90;;;13.27;;
57401;SDS011;43226;51.110;6.998;2022-12-07T07:26:49;20.70;;;13.83;;
57401;SDS011;43226;51.110;6.998;2022-12-07T07:29:14;26.40;;;14.90;;
57401;SDS011;43226;51.110;6.998;2022-12-07T07:31:40;23.43;;;15.87;;
57401;SDS011;43226;51.110;6.998;2022-12-07T07:34:05;20.83;;;14.03;;
57401;SDS011;43226;51.110;6.998;2022-12-07T07:36:30;19.93;;;13.83;;
57401;SDS011;43226;51.110;6.998;2022-12-07T07:38:55;21.27;;;15.10;;
57401;SDS011;43226;51.110;6.998;2022-12-07T07:41:20;24.00;;;13.27;;
57401;SDS011;43226;51.110;6.998;2022-12-07T07:43:45;18.87;;;13.83;;
57401;SDS011;43226;51.110;6.998;2022-12-07T07:46:11;21.57;;;13.80;;
57401;SDS011;43226;51.110;6.998;2022-12-07T07:48:36;31.97;;;13.13;;
57401;SDS011;43226;51.110;6.998;2022-12-07T07:51:04;31.70;;;17.27;;
57401;SDS011;43226;51.110;6.998;2022-12-07T07:53:29;22.00;;;14.70;;
57401;SDS011;43226;51.110;6.998;2022-12-07T07:55:54;28.47;;;16.07;;
57401;SDS011;43226;51.110;6.998;2022-12-07T07:58:20;19.00;;;13.13;;
57401;SDS011;43226;51.110;6.998;2022-12-07T08:00:45;19.10;;;13.13;;
57401;SDS011;43226;51.110;6.998;2022-12-07T08:03:10;24.80;;;13.60;;
57401;SDS011;43226;51.110;6.998;2022-12-07T08:05:36;21.53;;;14.00;;
57401;SDS011;43226;51.110;6.998;2022-12-07T08:08:01;19.03;;;13.23;;
57401;SDS011;43226;51.110;6.998;2022-12-07T08:10:27;18.57;;;13.10;;
57401;SDS011;43226;51.110;6.998;2022-12-07T08:12:52;22.47;;;13.30;;
57401;SDS011;43226;51.110;6.998;2022-12-07T08:15:36;29.77;;;15.20;;
57401;SDS011;43226;51.110;6.998;2022-12-07T08:18:02;23.30;;;14.03;;
57401;SDS011;43226;51.110;6.998;2022-12-07T08:20:29;27.53;;;14.17;;
57401;SDS011;43226;51.110;6.998;2022-12-07T08:22:54;20.70;;;13.70;;
57401;SDS011;43226;51.110;6.998;2022-12-07T08:25:20;21.70;;;13.93;;
57401;SDS011;43226;51.110;6.998;2022-12-07T08:27:46;22.57;;;13.80;;
57401;SDS011;43226;51.110;6.998;2022-12-07T08:30:12;19.33;;;14.13;;
57401;SDS011;43226;51.110;6.998;2022-12-07T08:32:37;24.00;;;13.60;;
57401;SDS011;43226;51.110;6.998;2022-12-07T08:35:02;34.27;;;15.10;;
57401;SDS011;43226;51.110;6.998;2022-12-07T08:37:27;20.97;;;13.37;;
57401;SDS011;43226;51.110;6.998;2022-12-07T08:39:52;25.63;;;13.43;;
57401;SDS011;43226;51.110;6.998;2022-12-07T08:42:19;23.07;;;13.50;;
57401;SDS011;43226;51.110;6.998;2022-12-07T08:44:45;18.63;;;13.10;;
57401;SDS011;43226;51.110;6.998;2022-12-07T08:47:10;24.03;;;13.70;;
57401;SDS011;43226;51.110;6.998;2022-12-07T08:49:38;23.10;;;13.90;;
57401;SDS011;43226;51.110;6.998;2022-12-07T08:52:04;21.77;;;12.97;;
57401;SDS011;43226;51.110;6.998;2022-12-07T08:54:29;19.00;;;12.37;;
57401;SDS011;43226;51.110;6.998;2022-12-07T08:56:55;20.20;;;13.40;;
57401;SDS011;43226;51.110;6.998;2022-12-07T08:59:20;19.63;;;11.80;;
57401;SDS011;43226;51.110;6.998;2022-12-07T09:01:46;17.67;;;12.70;;
57401;SDS011;43226;51.110;6.998;2022-12-07T09:04:11;26.37;;;12.97;;
57401;SDS011;43226;51.110;6.998;2022-12-07T09:06:36;16.40;;;10.50;;
57401;SDS011;43226;51.110;6.998;2022-12-07T09:09:02;19.80;;;11.23;;
57401;SDS011;43226;51.110;6.998;2022-12-07T09:11:28;15.23;;;10.93;;
57401;SDS011;43226;51.110;6.998;2022-12-07T09:13:53;15.33;;;10.33;;
57401;SDS011;43226;51.110;6.998;2022-12-07T09:16:18;16.97;;;11.17;;
57401;SDS011;43226;51.110;6.998;2022-12-07T09:18:43;13.63;;;10.63;;
57401;SDS011;43226;51.110;6.998;2022-12-07T09:21:08;16.00;;;10.47;;
57401;SDS011;43226;51.110;6.998;2022-12-07T09:23:34;14.40;;;10.20;;
57401;SDS011;43226;51.110;6.998;2022-12-07T09:26:03;14.50;;;11.30;;
57401;SDS011;43226;51.110;6.998;2022-12-07T09:28:30;18.37;;;10.30;;
57401;SDS011;43226;51.110;6.998;2022-12-07T09:30:55;19.87;;;10.80;;
57401;SDS011;43226;51.110;6.998;2022-12-07T09:33:20;15.10;;;11.07;;
57401;SDS011;43226;51.110;6.998;2022-12-07T09:35:49;14.33;;;10.57;;
57401;SDS011;43226;51.110;6.998;2022-12-07T09:38:15;12.33;;;10.10;;
57401;SDS011;43226;51.110;6.998;2022-12-07T09:40:40;17.50;;;10.30;;
57401;SDS011;43226;51.110;6.998;2022-12-07T09:43:11;21.73;;;10.60;;
57401;SDS011;43226;51.110;6.998;2022-12-07T09:45:37;15.60;;;10.70;;
57401;SDS011;43226;51.110;6.998;2022-12-07T09:48:03;14.80;;;9.87;;
57401;SDS011;43226;51.110;6.998;2022-12-07T09:50:29;16.87;;;9.70;;
57401;SDS011;43226;51.110;6.998;2022-12-07T09:52:55;15.47;;;10.63;;
57401;SDS011;43226;51.110;6.998;2022-12-07T09:55:28;13.70;;;10.10;;
57401;SDS011;43226;51.110;6.998;2022-12-07T09:57:53;17.00;;;11.83;;
57401;SDS011;43226;51.110;6.998;2022-12-07T10:00:20;18.77;;;11.27;;
57401;SDS011;43226;51.110;6.998;2022-12-07T10:02:47;16.57;;;10.23;;
57401;SDS011;43226;51.110;6.998;2022-12-07T10:05:20;17.80;;;11.50;;
57401;SDS011;43226;51.110;6.998;2022-12-07T10:07:46;15.20;;;10.87;;
57401;SDS011;43226;51.110;6.998;2022-12-07T10:10:16;19.23;;;11.30;;
57401;SDS011;43226;51.110;6.998;2022-12-07T10:12:52;15.00;;;10.07;;
57401;SDS011;43226;51.110;6.998;2022-12-07T10:15:18;18.27;;;12.43;;
57401;SDS011;43226;51.110;6.998;2022-12-07T10:17:47;16.40;;;11.73;;
57401;SDS011;43226;51.110;6.998;2022-12-07T10:22:54;20.60;;;12.13;;
57401;SDS011;43226;51.110;6.998;2022-12-07T10:25:20;15.47;;;11.93;;
57401;SDS011;43226;51.110;6.998;2022-12-07T10:27:57;19.83;;;11.23;;
57401;SDS011;43226;51.110;6.998;2022-12-07T10:30:22;15.80;;;11.30;;
57401;SDS011;43226;51.110;6.998;2022-12-07T10:32:47;25.93;;;12.50;;
57401;SDS011;43226;51.110;6.998;2022-12-07T10:35:26;15.50;;;10.80;;
57401;SDS011;43226;51.110;6.998;2022-12-07T10:37:52;15.53;;;10.57;;
57401;SDS011;43226;51.110;6.998;2022-12-07T10:42:59;19.00;;;11.87;;
57401;SDS011;43226;51.110;6.998;2022-12-07T10:45:25;16.17;;;10.90;;
57401;SDS011;43226;51.110;6.998;2022-12-07T10:58:31;19.90;;;9.33;;
57401;SDS011;43226;51.110;6.998;2022-12-07T11:06:34;18.03;;;8.97;;
57401;SDS011;43226;51.110;6.998;2022-12-07T11:09:16;14.83;;;9.40;;
57401;SDS011;43226;51.110;6.998;2022-12-07T11:14:31;15.60;;;9.50;;
57401;SDS011;43226;51.110;6.998;2022-12-07T11:19:32;13.53;;;9.37;;
57401;SDS011;43226;51.110;6.998;2022-12-07T11:22:04;15.93;;;8.23;;
57401;SDS011;43226;51.110;6.998;2022-12-07T11:24:41;12.10;;;8.00;;
57401;SDS011;43226;51.110;6.998;2022-12-07T11:29:56;11.83;;;8.50;;
57401;SDS011;43226;51.110;6.998;2022-12-07T11:34:57;9.83;;;7.40;;
57401;SDS011;43226;51.110;6.998;2022-12-07T11:37:25;16.53;;;8.17;;
57401;SDS011;43226;51.110;6.998;2022-12-07T11:39:59;11.37;;;7.50;;
57401;SDS011;43226;51.110;6.998;2022-12-07T11:42:26;13.47;;;8.50;;
57401;SDS011;43226;51.110;6.998;2022-12-07T11:44:53;13.30;;;9.60;;
57401;SDS011;43226;51.110;6.998;2022-12-07T11:47:30;14.20;;;7.33;;
57401;SDS011;43226;51.110;6.998;2022-12-07T11:54:56;14.97;;;8.20;;
57401;SDS011;43226;51.110;6.998;2022-12-07T11:57:25;10.70;;;8.00;;
57401;SDS011;43226;51.110;6.998;2022-12-07T11:59:54;10.90;;;7.10;;
57401;SDS011;43226;51.110;6.998;2022-12-07T12:02:24;11.03;;;7.60;;
57401;SDS011;43226;51.110;6.998;2022-12-07T12:07:22;15.33;;;7.37;;
57401;SDS011;43226;51.110;6.998;2022-12-07T12:09:54;9.00;;;6.00;;
57401;SDS011;43226;51.110;6.998;2022-12-07T12:12:23;14.93;;;7.07;;
57401;SDS011;43226;51.110;6.998;2022-12-07T12:14:57;11.63;;;6.77;;
57401;SDS011;43226;51.110;6.998;2022-12-07T12:20:06;12.20;;;6.50;;
57401;SDS011;43226;51.110;6.998;2022-12-07T12:22:40;12.53;;;7.10;;
57401;SDS011;43226;51.110;6.998;2022-12-07T12:25:07;9.00;;;5.67;;
57401;SDS011;43226;51.110;6.998;2022-12-07T12:27:38;10.97;;;6.27;;
57401;SDS011;43226;51.110;6.998;2022-12-07T12:30:05;12.00;;;5.40;;
57401;SDS011;43226;51.110;6.998;2022-12-07T12:35:01;6.90;;;5.43;;
57401;SDS011;43226;51.110;6.998;2022-12-07T12:42:45;12.77;;;5.57;;
57401;SDS011;43226;51.110;6.998;2022-12-07T12:48:02;6.60;;;5.67;;
57401;SDS011;43226;51.110;6.998;2022-12-07T12:50:32;11.10;;;6.37;;
57401;SDS011;43226;51.110;6.998;2022-12-07T12:53:02;16.10;;;6.00;;
57401;SDS011;43226;51.110;6.998;2022-12-07T12:55:29;9.77;;;6.00;;
57401;SDS011;43226;51.110;6.998;2022-12-07T13:00:42;15.27;;;7.13;;
57401;SDS011;43226;51.110;6.998;2022-12-07T13:03:16;10.60;;;7.50;;
57401;SDS011;43226;51.110;6.998;2022-12-07T13:05:45;11.63;;;7.00;;
57401;SDS011;43226;51.110;6.998;2022-12-07T13:08:18;12.30;;;7.03;;
57401;SDS011;43226;51.110;6.998;2022-12-07T13:10:45;14.47;;;7.80;;
57401;SDS011;43226;51.110;6.998;2022-12-07T13:15:48;16.80;;;9.57;;
57401;SDS011;43226;51.110;6.998;2022-12-07T13:20:48;16.50;;;7.20;;
57401;SDS011;43226;51.110;6.998;2022-12-07T13:23:16;21.20;;;8.37;;
57401;SDS011;43226;51.110;6.998;2022-12-07T13:25:45;11.13;;;6.83;;
57401;SDS011;43226;51.110;6.998;2022-12-07T13:28:19;15.83;;;7.27;;
57401;SDS011;43226;51.110;6.998;2022-12-07T13:30:46;13.53;;;7.50;;
57401;SDS011;43226;51.110;6.998;2022-12-07T13:33:12;10.63;;;6.10;;
57401;SDS011;43226;51.110;6.998;2022-12-07T13:35:38;11.93;;;6.70;;
57401;SDS011;43226;51.110;6.998;2022-12-07T13:38:19;10.57;;;6.37;;
57401;SDS011;43226;51.110;6.998;2022-12-07T13:40:59;13.57;;;6.30;;
57401;SDS011;43226;51.110;6.998;2022-12-07T13:43:24;17.00;;;6.70;;
57401;SDS011;43226;51.110;6.998;2022-12-07T13:45:55;17.47;;;6.87;;
57401;SDS011;43226;51.110;6.998;2022-12-07T13:48:30;9.63;;;5.40;;
57401;SDS011;43226;51.110;6.998;2022-12-07T13:50:57;11.80;;;6.43;;
57401;SDS011;43226;51.110;6.998;2022-12-07T13:53:23;10.97;;;6.03;;
57401;SDS011;43226;51.110;6.998;2022-12-07T13:55:48;23.40;;;8.30;;
57401;SDS011;43226;51.110;6.998;2022-12-07T13:58:14;15.63;;;7.00;;
57401;SDS011;43226;51.110;6.998;2022-12-07T14:00:39;8.07;;;5.20;;
57401;SDS011;43226;51.110;6.998;2022-12-07T14:05:36;8.63;;;5.10;;
57401;SDS011;43226;51.110;6.998;2022-12-07T14:12:55;9.07;;;5.10;;
57401;SDS011;43226;51.110;6.998;2022-12-07T14:15:21;8.10;;;5.30;;
57401;SDS011;43226;51.110;6.998;2022-12-07T14:17:51;6.20;;;4.77;;
57401;SDS011;43226;51.110;6.998;2022-12-07T14:22:57;11.83;;;5.27;;
57401;SDS011;43226;51.110;6.998;2022-12-07T14:25:23;11.30;;;4.53;;
57401;SDS011;43226;51.110;6.998;2022-12-07T14:30:14;10.73;;;5.47;;
57401;SDS011;43226;51.110;6.998;2022-12-07T14:32:40;12.03;;;4.77;;
57401;SDS011;43226;51.110;6.998;2022-12-07T14:35:10;11.40;;;5.10;;
57401;SDS011;43226;51.110;6.998;2022-12-07T14:37:35;13.70;;;6.40;;
57401;SDS011;43226;51.110;6.998;2022-12-07T14:40:00;8.60;;;5.47;;
57401;SDS011;43226;51.110;6.998;2022-12-07T14:42:27;9.70;;;5.27;;
57401;SDS011;43226;51.110;6.998;2022-12-07T14:44:53;16.37;;;9.80;;
57401;SDS011;43226;51.110;6.998;2022-12-07T14:47:18;12.80;;;7.70;;
57401;SDS011;43226;51.110;6.998;2022-12-07T14:49:43;12.63;;;6.47;;
57401;SDS011;43226;51.110;6.998;2022-12-07T14:52:13;14.77;;;6.50;;
57401;SDS011;43226;51.110;6.998;2022-12-07T14:54:40;9.17;;;5.93;;
57401;SDS011;43226;51.110;6.998;2022-12-07T14:57:07;11.97;;;6.83;;
57401;SDS011;43226;51.110;6.998;2022-12-07T14:59:33;9.03;;;6.53;;
57401;SDS011;43226;51.110;6.998;2022-12-07T15:01:58;10.90;;;6.90;;
57401;SDS011;43226;51.110;6.998;2022-12-07T15:04:23;19.47;;;8.60;;
57401;SDS011;43226;51.110;6.998;2022-12-07T15:06:58;10.30;;;7.23;;
57401;SDS011;43226;51.110;6.998;2022-12-07T15:09:24;20.83;;;11.00;;
57401;SDS011;43226;51.110;6.998;2022-12-07T15:11:49;22.67;;;12.47;;
57401;SDS011;43226;51.110;6.998;2022-12-07T15:14:14;20.73;;;12.23;;
57401;SDS011;43226;51.110;6.998;2022-12-07T15:17:48;17.57;;;7.53;;
57401;SDS011;43226;51.110;6.998;2022-12-07T15:20:16;11.90;;;7.60;;
57401;SDS011;43226;51.110;6.998;2022-12-07T15:22:41;16.17;;;11.00;;
57401;SDS011;43226;51.110;6.998;2022-12-07T15:25:08;16.93;;;8.07;;
57401;SDS011;43226;51.110;6.998;2022-12-07T15:27:33;14.10;;;7.97;;
57401;SDS011;43226;51.110;6.998;2022-12-07T15:29:59;17.47;;;11.67;;
57401;SDS011;43226;51.110;6.998;2022-12-07T15:32:24;24.83;;;9.00;;
57401;SDS011;43226;51.110;6.998;2022-12-07T15:34:49;28.77;;;16.20;;
57401;SDS011;43226;51.110;6.998;2022-12-07T15:37:15;18.73;;;8.33;;
57401;SDS011;43226;51.110;6.998;2022-12-07T15:39:40;16.70;;;8.07;;
57401;SDS011;43226;51.110;6.998;2022-12-07T15:42:05;15.40;;;8.27;;
57401;SDS011;43226;51.110;6.998;2022-12-07T15:44:30;13.70;;;7.33;;
57401;SDS011;43226;51.110;6.998;2022-12-07T15:47:14;15.73;;;7.73;;
57401;SDS011;43226;51.110;6.998;2022-12-07T15:49:39;12.27;;;7.10;;
57401;SDS011;43226;51.110;6.998;2022-12-07T15:52:04;9.30;;;7.27;;
57401;SDS011;43226;51.110;6.998;2022-12-07T15:54:30;10.47;;;6.93;;
57401;SDS011;43226;51.110;6.998;2022-12-07T15:56:55;12.90;;;6.87;;
57401;SDS011;43226;51.110;6.998;2022-12-07T15:59:21;15.37;;;7.37;;
57401;SDS011;43226;51.110;6.998;2022-12-07T16:01:46;9.30;;;6.20;;
57401;SDS011;43226;51.110;6.998;2022-12-07T16:04:11;8.10;;;5.90;;
57401;SDS011;43226;51.110;6.998;2022-12-07T16:06:37;9.40;;;5.80;;